PUA2419 SBRJ-SGAS
Flight info
| Callsign | PUA2419 |
|---|---|
| Flight time | 2h 10m |
| Altitude | 36000 |
| Route | SIDUR UZ10 EDMUS DCT ASETA UL301 DEVOS DEVOS |
| Aircraft | A320/M-SDE3FGHIRWY/LB1 |
Departure
| Time | 2026-04-21 01:55 |
|---|---|
| Airport | Santos Dumont Airport (SBRJ) |
Arrival
| Time | 2026-04-21 04:06 |
|---|---|
| Airport | Silvio Pettirossi International Airport (SGAS) |
| Time | Latitude | Longitude | Altitude | Speed | Heading |
|---|---|---|---|---|---|
| 2026-04-21 00:55 | -22.91245 | -43.16581 | 22 ft | 0 kts | 267° |
| 2026-04-21 01:41 | -22.91245 | -43.16562 | 22 ft | 2 kts | 267° |
| 2026-04-21 01:41 | -22.91244 | -43.16544 | 22 ft | 2 kts | 267° |
| 2026-04-21 01:41 | -22.91245 | -43.16525 | 22 ft | 3 kts | 301° |
| 2026-04-21 01:42 | -22.91257 | -43.16510 | 26 ft | 3 kts | 338° |
| 2026-04-21 01:42 | -22.91270 | -43.16507 | 22 ft | 0 kts | 353° |
| 2026-04-21 01:46 | -22.91268 | -43.16507 | 22 ft | 0 kts | 351° |
| 2026-04-21 01:49 | -22.91264 | -43.16508 | 25 ft | 5 kts | 351° |
| 2026-04-21 01:49 | -22.91159 | -43.16517 | 22 ft | 22 kts | 359° |
| 2026-04-21 01:50 | -22.91011 | -43.16547 | 22 ft | 22 kts | 356° |
| 2026-04-21 01:50 | -22.90855 | -43.16549 | 22 ft | 23 kts | 357° |
| 2026-04-21 01:50 | -22.90712 | -43.16544 | 24 ft | 20 kts | 356° |
| 2026-04-21 01:50 | -22.90628 | -43.16550 | 22 ft | 10 kts | 356° |
| 2026-04-21 01:51 | -22.90564 | -43.16555 | 22 ft | 9 kts | 356° |
| 2026-04-21 01:51 | -22.90512 | -43.16546 | 22 ft | 7 kts | 38° |
| 2026-04-21 01:51 | -22.90497 | -43.16503 | 22 ft | 6 kts | 86° |
| 2026-04-21 01:51 | -22.90497 | -43.16492 | 22 ft | 0 kts | 87° |
| 2026-04-21 01:54 | -22.90495 | -43.16450 | 23 ft | 11 kts | 87° |
| 2026-04-21 01:54 | -22.90491 | -43.16357 | 24 ft | 12 kts | 90° |
| 2026-04-21 01:54 | -22.90559 | -43.16314 | 25 ft | 23 kts | 176° |
| 2026-04-21 01:54 | -22.91041 | -43.16283 | 25 ft | 115 kts | 176° |
| 2026-04-21 01:55 | -22.92056 | -43.16219 | 365 ft | 160 kts | 177° |
| 2026-04-21 01:55 | -22.93167 | -43.15925 | 1115 ft | 174 kts | 144° |
| 2026-04-21 01:55 | -22.93988 | -43.14937 | 2014 ft | 178 kts | 130° |
| 2026-04-21 01:55 | -22.94790 | -43.13871 | 2456 ft | 193 kts | 132° |
| 2026-04-21 01:56 | -22.95795 | -43.12786 | 2785 ft | 214 kts | 139° |
| 2026-04-21 01:56 | -22.96962 | -43.11659 | 3406 ft | 227 kts | 141° |
| 2026-04-21 01:56 | -22.98164 | -43.10533 | 4254 ft | 231 kts | 143° |
| 2026-04-21 01:56 | -22.99588 | -43.09775 | 5045 ft | 231 kts | 176° |
| 2026-04-21 01:57 | -23.01174 | -43.10099 | 5608 ft | 245 kts | 211° |
| 2026-04-21 01:57 | -23.02615 | -43.11214 | 6194 ft | 261 kts | 219° |
| 2026-04-21 01:57 | -23.04036 | -43.12496 | 7013 ft | 268 kts | 221° |
| 2026-04-21 01:57 | -23.05460 | -43.13826 | 7709 ft | 273 kts | 221° |
| 2026-04-21 01:58 | -23.06869 | -43.15222 | 8061 ft | 278 kts | 230° |
| 2026-04-21 01:58 | -23.07625 | -43.17137 | 8964 ft | 283 kts | 263° |
| 2026-04-21 01:58 | -23.07300 | -43.19249 | 9857 ft | 293 kts | 294° |
| 2026-04-21 01:58 | -23.06052 | -43.21055 | 10443 ft | 310 kts | 309° |
| 2026-04-21 01:59 | -23.04871 | -43.23076 | 10736 ft | 326 kts | 285° |
| 2026-04-21 01:59 | -23.04566 | -43.25527 | 11325 ft | 331 kts | 267° |
| 2026-04-21 01:59 | -23.04735 | -43.28032 | 12041 ft | 335 kts | 261° |
| 2026-04-21 01:59 | -23.05032 | -43.30558 | 12758 ft | 340 kts | 261° |
| 2026-04-21 02:00 | -23.05293 | -43.33134 | 13499 ft | 346 kts | 263° |
| 2026-04-21 02:00 | -23.05452 | -43.35723 | 14147 ft | 351 kts | 266° |
| 2026-04-21 02:00 | -23.05512 | -43.38393 | 14753 ft | 356 kts | 268° |
| 2026-04-21 02:00 | -23.05498 | -43.41099 | 15360 ft | 361 kts | 269° |
| 2026-04-21 02:01 | -23.05443 | -43.43796 | 15956 ft | 365 kts | 270° |
| 2026-04-21 02:01 | -23.05375 | -43.46564 | 16560 ft | 368 kts | 270° |
| 2026-04-21 02:01 | -23.05309 | -43.49358 | 17153 ft | 373 kts | 270° |
| 2026-04-21 02:01 | -23.05249 | -43.52189 | 17716 ft | 378 kts | 270° |
| 2026-04-21 02:02 | -23.05196 | -43.55060 | 18285 ft | 382 kts | 270° |
| 2026-04-21 02:02 | -23.05148 | -43.57962 | 18788 ft | 386 kts | 269° |
| 2026-04-21 02:02 | -23.05103 | -43.60883 | 19310 ft | 389 kts | 269° |
| 2026-04-21 02:02 | -23.05059 | -43.63832 | 19829 ft | 392 kts | 269° |
| 2026-04-21 02:03 | -23.05015 | -43.66793 | 20377 ft | 394 kts | 269° |
| 2026-04-21 02:03 | -23.04990 | -43.69770 | 20903 ft | 395 kts | 266° |
| 2026-04-21 02:03 | -23.05186 | -43.72804 | 21419 ft | 397 kts | 263° |
| 2026-04-21 02:03 | -23.05433 | -43.75791 | 21924 ft | 400 kts | 263° |
| 2026-04-21 02:04 | -23.05708 | -43.78804 | 22422 ft | 402 kts | 262° |
| 2026-04-21 02:04 | -23.05996 | -43.81840 | 22918 ft | 405 kts | 262° |
| 2026-04-21 02:04 | -23.06283 | -43.84888 | 23421 ft | 407 kts | 262° |
| 2026-04-21 02:04 | -23.06567 | -43.87997 | 23874 ft | 410 kts | 263° |
| 2026-04-21 02:05 | -23.06838 | -43.91086 | 24289 ft | 412 kts | 263° |
| 2026-04-21 02:05 | -23.07106 | -43.94187 | 24706 ft | 414 kts | 263° |
| 2026-04-21 02:05 | -23.07377 | -43.97347 | 25123 ft | 416 kts | 263° |
| 2026-04-21 02:05 | -23.07642 | -44.00475 | 25561 ft | 417 kts | 262° |
| 2026-04-21 02:06 | -23.07912 | -44.03661 | 25967 ft | 419 kts | 263° |
| 2026-04-21 02:06 | -23.08182 | -44.06817 | 26367 ft | 421 kts | 262° |
| 2026-04-21 02:06 | -23.08454 | -44.09989 | 26771 ft | 422 kts | 263° |
| 2026-04-21 02:06 | -23.08728 | -44.13165 | 27166 ft | 424 kts | 262° |
| 2026-04-21 02:07 | -23.09004 | -44.16363 | 27563 ft | 426 kts | 262° |
| 2026-04-21 02:07 | -23.09278 | -44.19572 | 27945 ft | 428 kts | 262° |
| 2026-04-21 02:07 | -23.09552 | -44.22800 | 28325 ft | 430 kts | 263° |
| 2026-04-21 02:07 | -23.09824 | -44.26035 | 28707 ft | 432 kts | 263° |
| 2026-04-21 02:08 | -23.10098 | -44.29290 | 29084 ft | 434 kts | 263° |
| 2026-04-21 02:08 | -23.10376 | -44.32599 | 29457 ft | 435 kts | 262° |
| 2026-04-21 02:08 | -23.10563 | -44.34819 | 29710 ft | 437 kts | 262° |
| 2026-04-21 02:08 | -23.10839 | -44.38107 | 30073 ft | 439 kts | 262° |
| 2026-04-21 02:09 | -23.11115 | -44.41415 | 30388 ft | 441 kts | 262° |
| 2026-04-21 02:09 | -23.11392 | -44.44737 | 30677 ft | 443 kts | 263° |
| 2026-04-21 02:09 | -23.11670 | -44.48075 | 30966 ft | 444 kts | 263° |
| 2026-04-21 02:09 | -23.11946 | -44.51413 | 31253 ft | 446 kts | 263° |
| 2026-04-21 02:10 | -23.12224 | -44.54789 | 31531 ft | 448 kts | 263° |
| 2026-04-21 02:10 | -23.12507 | -44.58204 | 31816 ft | 449 kts | 262° |
| 2026-04-21 02:10 | -23.12782 | -44.61540 | 32201 ft | 448 kts | 262° |
| 2026-04-21 02:10 | -23.13060 | -44.64905 | 32619 ft | 446 kts | 263° |
| 2026-04-21 02:11 | -23.13336 | -44.68257 | 33050 ft | 444 kts | 263° |
| 2026-04-21 02:11 | -23.13610 | -44.71640 | 33475 ft | 443 kts | 263° |
| 2026-04-21 02:11 | -23.13878 | -44.74972 | 33884 ft | 442 kts | 263° |
| 2026-04-21 02:11 | -23.14144 | -44.78294 | 34291 ft | 441 kts | 262° |
| 2026-04-21 02:12 | -23.14416 | -44.81644 | 34626 ft | 440 kts | 262° |
| 2026-04-21 02:12 | -23.14685 | -44.84956 | 35007 ft | 438 kts | 262° |
| 2026-04-21 02:12 | -23.14951 | -44.88241 | 35381 ft | 436 kts | 262° |
| 2026-04-21 02:12 | -23.15214 | -44.91513 | 35740 ft | 433 kts | 262° |
| 2026-04-21 02:13 | -23.15476 | -44.94772 | 36058 ft | 432 kts | 262° |
| 2026-04-21 02:13 | -23.15993 | -45.01225 | 36169 ft | 424 kts | 262° |
| 2026-04-21 02:14 | -23.16495 | -45.07588 | 36166 ft | 422 kts | 262° |
| 2026-04-21 02:14 | -23.16997 | -45.13932 | 36168 ft | 421 kts | 262° |
| 2026-04-21 02:15 | -23.17502 | -45.20278 | 36167 ft | 421 kts | 262° |
| 2026-04-21 02:15 | -23.17998 | -45.26604 | 36158 ft | 420 kts | 262° |
| 2026-04-21 02:16 | -23.18481 | -45.32924 | 36149 ft | 420 kts | 262° |
| 2026-04-21 02:16 | -23.18959 | -45.39241 | 36145 ft | 420 kts | 263° |
| 2026-04-21 02:17 | -23.19305 | -45.45627 | 36152 ft | 420 kts | 264° |
| 2026-04-21 02:17 | -23.19541 | -45.51951 | 36152 ft | 420 kts | 264° |
| 2026-04-21 02:18 | -23.19779 | -45.58299 | 36145 ft | 419 kts | 264° |
| 2026-04-21 02:18 | -23.20040 | -45.64630 | 36152 ft | 418 kts | 264° |
| 2026-04-21 02:19 | -23.20316 | -45.70942 | 36170 ft | 418 kts | 264° |
| 2026-04-21 02:19 | -23.20588 | -45.77253 | 36169 ft | 418 kts | 264° |
| 2026-04-21 02:20 | -23.20855 | -45.83553 | 36170 ft | 417 kts | 264° |
| 2026-04-21 02:20 | -23.21112 | -45.89852 | 36169 ft | 417 kts | 264° |
| 2026-04-21 02:21 | -23.21366 | -45.96157 | 36164 ft | 417 kts | 264° |
| 2026-04-21 02:21 | -23.21616 | -46.02402 | 36157 ft | 408 kts | 264° |
| 2026-04-21 02:22 | -23.21867 | -46.08619 | 36159 ft | 415 kts | 264° |
| 2026-04-21 02:22 | -23.22118 | -46.14947 | 36158 ft | 416 kts | 264° |
| 2026-04-21 02:23 | -23.22356 | -46.21183 | 36164 ft | 417 kts | 264° |
| 2026-04-21 02:23 | -23.22597 | -46.27473 | 36169 ft | 416 kts | 264° |
| 2026-04-21 02:24 | -23.22845 | -46.33753 | 36168 ft | 416 kts | 264° |
| 2026-04-21 02:24 | -23.23087 | -46.40047 | 36165 ft | 417 kts | 264° |
| 2026-04-21 02:25 | -23.23316 | -46.46329 | 36165 ft | 417 kts | 264° |
| 2026-04-21 02:25 | -23.23547 | -46.52641 | 36165 ft | 417 kts | 264° |
| 2026-04-21 02:26 | -23.23783 | -46.58945 | 36165 ft | 418 kts | 264° |
| 2026-04-21 02:26 | -23.24017 | -46.65256 | 36163 ft | 418 kts | 264° |
| 2026-04-21 02:27 | -23.24247 | -46.71581 | 36160 ft | 418 kts | 264° |
| 2026-04-21 02:27 | -23.24466 | -46.77893 | 36156 ft | 418 kts | 265° |
| 2026-04-21 02:28 | -23.24684 | -46.84206 | 36146 ft | 418 kts | 265° |
| 2026-04-21 02:28 | -23.24906 | -46.90514 | 36137 ft | 417 kts | 264° |
| 2026-04-21 02:29 | -23.25122 | -46.96821 | 36137 ft | 417 kts | 265° |
| 2026-04-21 02:29 | -23.25334 | -47.02952 | 36133 ft | 417 kts | 265° |
| 2026-04-21 02:30 | -23.25548 | -47.09247 | 36129 ft | 417 kts | 265° |
| 2026-04-21 02:30 | -23.25753 | -47.15546 | 36113 ft | 417 kts | 265° |
| 2026-04-21 02:31 | -23.25950 | -47.21855 | 36111 ft | 418 kts | 265° |
| 2026-04-21 02:31 | -23.26152 | -47.28168 | 36111 ft | 418 kts | 265° |
| 2026-04-21 02:32 | -23.26362 | -47.34507 | 36116 ft | 418 kts | 265° |
| 2026-04-21 02:32 | -23.26564 | -47.40804 | 36116 ft | 418 kts | 265° |
| 2026-04-21 02:33 | -23.26756 | -47.47123 | 36113 ft | 418 kts | 265° |
| 2026-04-21 02:33 | -23.26944 | -47.53440 | 36115 ft | 418 kts | 265° |
| 2026-04-21 02:34 | -23.27145 | -47.59797 | 36118 ft | 418 kts | 265° |
| 2026-04-21 02:34 | -23.27336 | -47.66065 | 36122 ft | 417 kts | 265° |
| 2026-04-21 02:35 | -23.27525 | -47.72375 | 36119 ft | 417 kts | 265° |
| 2026-04-21 02:35 | -23.27713 | -47.78725 | 36118 ft | 417 kts | 265° |
| 2026-04-21 02:36 | -23.27892 | -47.84991 | 36111 ft | 417 kts | 266° |
| 2026-04-21 02:36 | -23.28065 | -47.91294 | 36109 ft | 417 kts | 266° |
| 2026-04-21 02:37 | -23.28239 | -47.97645 | 36104 ft | 418 kts | 266° |
| 2026-04-21 02:37 | -23.28419 | -48.03961 | 36105 ft | 418 kts | 266° |
| 2026-04-21 02:38 | -23.28678 | -48.10274 | 36108 ft | 417 kts | 260° |
| 2026-04-21 02:38 | -23.29583 | -48.16488 | 36108 ft | 416 kts | 259° |
| 2026-04-21 02:39 | -23.30499 | -48.22709 | 36110 ft | 416 kts | 259° |
| 2026-04-21 02:39 | -23.31420 | -48.28964 | 36297 ft | 422 kts | 259° |
| 2026-04-21 02:39 | -23.31882 | -48.32116 | 36555 ft | 422 kts | 259° |
| 2026-04-21 02:40 | -23.32340 | -48.35263 | 36854 ft | 421 kts | 259° |
| 2026-04-21 02:40 | -23.32794 | -48.38400 | 37173 ft | 419 kts | 259° |
| 2026-04-21 02:40 | -23.33297 | -48.41518 | 37487 ft | 417 kts | 255° |
| 2026-04-21 02:40 | -23.34104 | -48.44535 | 37787 ft | 414 kts | 251° |
| 2026-04-21 02:41 | -23.34944 | -48.47524 | 38054 ft | 414 kts | 251° |
| 2026-04-21 02:41 | -23.36621 | -48.53504 | 38122 ft | 412 kts | 251° |
| 2026-04-21 02:42 | -23.38275 | -48.59472 | 38124 ft | 411 kts | 252° |
| 2026-04-21 02:42 | -23.39901 | -48.65366 | 38123 ft | 411 kts | 252° |
| 2026-04-21 02:43 | -23.41553 | -48.71335 | 38122 ft | 412 kts | 252° |
| 2026-04-21 02:43 | -23.43207 | -48.77305 | 38123 ft | 412 kts | 252° |
| 2026-04-21 02:44 | -23.44825 | -48.83178 | 38122 ft | 412 kts | 252° |
| 2026-04-21 02:44 | -23.46204 | -48.88189 | 38119 ft | 412 kts | 252° |
| 2026-04-21 02:45 | -23.47817 | -48.94032 | 38117 ft | 412 kts | 252° |
| 2026-04-21 02:45 | -23.49455 | -48.99961 | 38111 ft | 412 kts | 252° |
| 2026-04-21 02:46 | -23.51108 | -49.05978 | 38112 ft | 412 kts | 252° |
| 2026-04-21 02:46 | -23.52745 | -49.11952 | 38113 ft | 412 kts | 252° |
| 2026-04-21 02:47 | -23.54377 | -49.17932 | 38109 ft | 411 kts | 252° |
| 2026-04-21 02:47 | -23.55987 | -49.23827 | 38109 ft | 411 kts | 252° |
| 2026-04-21 02:48 | -23.57609 | -49.29757 | 38107 ft | 411 kts | 252° |
| 2026-04-21 02:48 | -23.59242 | -49.35735 | 38106 ft | 411 kts | 252° |
| 2026-04-21 02:49 | -23.60869 | -49.41708 | 38106 ft | 411 kts | 252° |
| 2026-04-21 02:49 | -23.62491 | -49.47697 | 38107 ft | 411 kts | 252° |
| 2026-04-21 02:50 | -23.64102 | -49.53681 | 38107 ft | 411 kts | 252° |
| 2026-04-21 02:50 | -23.65710 | -49.59668 | 38109 ft | 411 kts | 252° |
| 2026-04-21 02:51 | -23.67322 | -49.65647 | 38108 ft | 411 kts | 252° |
| 2026-04-21 02:51 | -23.68935 | -49.71634 | 38104 ft | 411 kts | 252° |
| 2026-04-21 02:52 | -23.70536 | -49.77616 | 38108 ft | 411 kts | 252° |
| 2026-04-21 02:52 | -23.72151 | -49.83664 | 38110 ft | 411 kts | 252° |
| 2026-04-21 02:53 | -23.73636 | -49.89219 | 38109 ft | 410 kts | 252° |
| 2026-04-21 02:53 | -23.75232 | -49.95188 | 38109 ft | 410 kts | 252° |
| 2026-04-21 02:54 | -23.76827 | -50.01176 | 38110 ft | 410 kts | 252° |
| 2026-04-21 02:54 | -23.78389 | -50.07069 | 38110 ft | 410 kts | 252° |
| 2026-04-21 02:55 | -23.79978 | -50.13049 | 38110 ft | 410 kts | 252° |
| 2026-04-21 02:55 | -23.81573 | -50.19065 | 38109 ft | 410 kts | 253° |
| 2026-04-21 02:56 | -23.83150 | -50.25045 | 38115 ft | 409 kts | 253° |
| 2026-04-21 02:56 | -23.85504 | -50.33994 | 38118 ft | 409 kts | 253° |
| 2026-04-21 02:57 | -23.87074 | -50.39960 | 38117 ft | 408 kts | 253° |
| 2026-04-21 02:57 | -23.88642 | -50.45921 | 38120 ft | 408 kts | 253° |
| 2026-04-21 02:58 | -23.90202 | -50.51870 | 38124 ft | 407 kts | 253° |
| 2026-04-21 02:58 | -23.91754 | -50.57812 | 38123 ft | 406 kts | 253° |
| 2026-04-21 02:59 | -23.93309 | -50.63750 | 38119 ft | 406 kts | 253° |
| 2026-04-21 02:59 | -23.94855 | -50.69725 | 38120 ft | 406 kts | 253° |
| 2026-04-21 03:00 | -23.96385 | -50.75656 | 38122 ft | 405 kts | 253° |
| 2026-04-21 03:00 | -23.97920 | -50.81572 | 38117 ft | 404 kts | 253° |
| 2026-04-21 03:01 | -23.99449 | -50.87485 | 38115 ft | 404 kts | 253° |
| 2026-04-21 03:01 | -24.00971 | -50.93396 | 38122 ft | 403 kts | 253° |
| 2026-04-21 03:02 | -24.02491 | -50.99280 | 38117 ft | 401 kts | 253° |
| 2026-04-21 03:02 | -24.04006 | -51.05151 | 38114 ft | 400 kts | 253° |
| 2026-04-21 03:03 | -24.05505 | -51.11017 | 38109 ft | 400 kts | 253° |
| 2026-04-21 03:03 | -24.07003 | -51.16873 | 38102 ft | 399 kts | 253° |
| 2026-04-21 03:04 | -24.08500 | -51.22728 | 38098 ft | 399 kts | 253° |
| 2026-04-21 03:04 | -24.10012 | -51.28622 | 38072 ft | 400 kts | 253° |
| 2026-04-21 03:05 | -24.11510 | -51.34499 | 38076 ft | 401 kts | 253° |
| 2026-04-21 03:05 | -24.13003 | -51.40385 | 38090 ft | 401 kts | 253° |
| 2026-04-21 03:06 | -24.14496 | -51.46267 | 38086 ft | 401 kts | 253° |
| 2026-04-21 03:06 | -24.15979 | -51.52151 | 38088 ft | 401 kts | 254° |
| 2026-04-21 03:07 | -24.17459 | -51.58032 | 38088 ft | 400 kts | 254° |
| 2026-04-21 03:07 | -24.18937 | -51.63908 | 38086 ft | 400 kts | 254° |
| 2026-04-21 03:08 | -24.20415 | -51.69773 | 38080 ft | 399 kts | 254° |
| 2026-04-21 03:08 | -24.21887 | -51.75631 | 38080 ft | 399 kts | 254° |
| 2026-04-21 03:09 | -24.23355 | -51.81499 | 38069 ft | 399 kts | 254° |
| 2026-04-21 03:09 | -24.24820 | -51.87369 | 38064 ft | 400 kts | 254° |
| 2026-04-21 03:10 | -24.26299 | -51.93285 | 38059 ft | 400 kts | 254° |
| 2026-04-21 03:10 | -24.27765 | -51.99162 | 38058 ft | 400 kts | 254° |
| 2026-04-21 03:11 | -24.29230 | -52.05041 | 38061 ft | 400 kts | 255° |
| 2026-04-21 03:11 | -24.30698 | -52.10962 | 38063 ft | 400 kts | 255° |
| 2026-04-21 03:12 | -24.31920 | -52.15894 | 38067 ft | 400 kts | 255° |
| 2026-04-21 03:12 | -24.33371 | -52.21780 | 38068 ft | 400 kts | 255° |
| 2026-04-21 03:13 | -24.34822 | -52.27671 | 38069 ft | 400 kts | 255° |
| 2026-04-21 03:13 | -24.36271 | -52.33564 | 38077 ft | 400 kts | 255° |
| 2026-04-21 03:14 | -24.37712 | -52.39454 | 38075 ft | 399 kts | 255° |
| 2026-04-21 03:14 | -24.39156 | -52.45327 | 38076 ft | 399 kts | 255° |
| 2026-04-21 03:15 | -24.40606 | -52.51201 | 38075 ft | 398 kts | 255° |
| 2026-04-21 03:15 | -24.42039 | -52.57063 | 38084 ft | 397 kts | 255° |
| 2026-04-21 03:16 | -24.43460 | -52.62918 | 38076 ft | 397 kts | 255° |
| 2026-04-21 03:16 | -24.44870 | -52.68771 | 38067 ft | 396 kts | 255° |
| 2026-04-21 03:17 | -24.46273 | -52.74611 | 38065 ft | 396 kts | 256° |
| 2026-04-21 03:17 | -24.47586 | -52.80475 | 38058 ft | 395 kts | 256° |
| 2026-04-21 03:18 | -24.48860 | -52.86334 | 38053 ft | 395 kts | 256° |
| 2026-04-21 03:18 | -24.50150 | -52.92190 | 38051 ft | 395 kts | 256° |
| 2026-04-21 03:19 | -24.51461 | -52.98080 | 38047 ft | 394 kts | 256° |
| 2026-04-21 03:19 | -24.52758 | -53.03890 | 38050 ft | 394 kts | 256° |
| 2026-04-21 03:20 | -24.54045 | -53.09735 | 38049 ft | 393 kts | 256° |
| 2026-04-21 03:20 | -24.55321 | -53.15569 | 38052 ft | 393 kts | 256° |
| 2026-04-21 03:21 | -24.56610 | -53.21443 | 38054 ft | 392 kts | 256° |
| 2026-04-21 03:21 | -24.57868 | -53.27262 | 38047 ft | 392 kts | 256° |
| 2026-04-21 03:22 | -24.59156 | -53.33071 | 38042 ft | 391 kts | 256° |
| 2026-04-21 03:22 | -24.60441 | -53.38874 | 38040 ft | 391 kts | 256° |
| 2026-04-21 03:23 | -24.61714 | -53.44681 | 38038 ft | 391 kts | 256° |
| 2026-04-21 03:23 | -24.62979 | -53.50492 | 38038 ft | 391 kts | 256° |
| 2026-04-21 03:24 | -24.64239 | -53.56293 | 38017 ft | 390 kts | 256° |
| 2026-04-21 03:24 | -24.65502 | -53.62104 | 38031 ft | 390 kts | 256° |
| 2026-04-21 03:25 | -24.66762 | -53.67913 | 38030 ft | 390 kts | 256° |
| 2026-04-21 03:25 | -24.68021 | -53.73716 | 38033 ft | 390 kts | 256° |
| 2026-04-21 03:26 | -24.69266 | -53.79516 | 38031 ft | 389 kts | 257° |
| 2026-04-21 03:26 | -24.70508 | -53.85305 | 38027 ft | 389 kts | 256° |
| 2026-04-21 03:27 | -24.71759 | -53.91090 | 38020 ft | 389 kts | 256° |
| 2026-04-21 03:27 | -24.72998 | -53.96872 | 38013 ft | 388 kts | 257° |
| 2026-04-21 03:28 | -24.74238 | -54.02657 | 38013 ft | 388 kts | 257° |
| 2026-04-21 03:28 | -24.75469 | -54.08427 | 38002 ft | 388 kts | 257° |
| 2026-04-21 03:29 | -24.76700 | -54.14194 | 38012 ft | 387 kts | 257° |
| 2026-04-21 03:29 | -24.77927 | -54.19962 | 37998 ft | 387 kts | 257° |
| 2026-04-21 03:30 | -24.79153 | -54.25734 | 37981 ft | 387 kts | 257° |
| 2026-04-21 03:30 | -24.80381 | -54.31504 | 37982 ft | 387 kts | 257° |
| 2026-04-21 03:31 | -24.81601 | -54.37277 | 37978 ft | 387 kts | 257° |
| 2026-04-21 03:31 | -24.82813 | -54.43050 | 37977 ft | 388 kts | 257° |
| 2026-04-21 03:32 | -24.84035 | -54.48837 | 37970 ft | 388 kts | 257° |
| 2026-04-21 03:32 | -24.85260 | -54.54611 | 37973 ft | 388 kts | 257° |
| 2026-04-21 03:33 | -24.86490 | -54.60401 | 37972 ft | 388 kts | 257° |
| 2026-04-21 03:33 | -24.87710 | -54.66187 | 37974 ft | 388 kts | 257° |
| 2026-04-21 03:34 | -24.88927 | -54.71977 | 37982 ft | 388 kts | 258° |
| 2026-04-21 03:34 | -24.90146 | -54.77811 | 37974 ft | 388 kts | 258° |
| 2026-04-21 03:35 | -24.91356 | -54.83610 | 37983 ft | 389 kts | 258° |
| 2026-04-21 03:35 | -24.92575 | -54.89414 | 37974 ft | 389 kts | 258° |
| 2026-04-21 03:36 | -24.93707 | -54.95241 | 37984 ft | 389 kts | 261° |
| 2026-04-21 03:36 | -24.94469 | -55.01133 | 37984 ft | 389 kts | 263° |
| 2026-04-21 03:37 | -24.95134 | -55.07042 | 37988 ft | 388 kts | 263° |
| 2026-04-21 03:37 | -24.95485 | -55.10016 | 37842 ft | 395 kts | 263° |
| 2026-04-21 03:37 | -24.95857 | -55.13033 | 37577 ft | 400 kts | 262° |
| 2026-04-21 03:38 | -24.96242 | -55.16070 | 37312 ft | 400 kts | 262° |
| 2026-04-21 03:38 | -24.96631 | -55.19104 | 37069 ft | 399 kts | 262° |
| 2026-04-21 03:38 | -24.97021 | -55.22132 | 36810 ft | 398 kts | 262° |
| 2026-04-21 03:38 | -24.97416 | -55.25142 | 36557 ft | 395 kts | 262° |
| 2026-04-21 03:39 | -24.97811 | -55.28129 | 36269 ft | 394 kts | 262° |
| 2026-04-21 03:39 | -24.98187 | -55.31108 | 35940 ft | 393 kts | 262° |
| 2026-04-21 03:39 | -24.98559 | -55.34106 | 35628 ft | 393 kts | 262° |
| 2026-04-21 03:39 | -24.98928 | -55.37087 | 35319 ft | 392 kts | 262° |
| 2026-04-21 03:40 | -24.99297 | -55.40061 | 35021 ft | 390 kts | 262° |
| 2026-04-21 03:40 | -24.99662 | -55.43015 | 34716 ft | 389 kts | 262° |
| 2026-04-21 03:40 | -25.00025 | -55.45962 | 34416 ft | 387 kts | 262° |
| 2026-04-21 03:40 | -25.00386 | -55.48888 | 34120 ft | 385 kts | 262° |
| 2026-04-21 03:41 | -25.00751 | -55.51814 | 33811 ft | 384 kts | 262° |
| 2026-04-21 03:41 | -25.01114 | -55.54719 | 33472 ft | 381 kts | 262° |
| 2026-04-21 03:41 | -25.01473 | -55.57608 | 33139 ft | 379 kts | 262° |
| 2026-04-21 03:41 | -25.01828 | -55.60478 | 32808 ft | 377 kts | 262° |
| 2026-04-21 03:42 | -25.02183 | -55.63341 | 32489 ft | 376 kts | 262° |
| 2026-04-21 03:42 | -25.02535 | -55.66188 | 32166 ft | 374 kts | 262° |
| 2026-04-21 03:42 | -25.02885 | -55.69018 | 31854 ft | 372 kts | 262° |
| 2026-04-21 03:42 | -25.03236 | -55.71842 | 31527 ft | 371 kts | 262° |
| 2026-04-21 03:43 | -25.03585 | -55.74653 | 31231 ft | 369 kts | 262° |
| 2026-04-21 03:43 | -25.03929 | -55.77449 | 30927 ft | 368 kts | 262° |
| 2026-04-21 03:43 | -25.04272 | -55.80233 | 30634 ft | 366 kts | 262° |
| 2026-04-21 03:43 | -25.04615 | -55.83020 | 30335 ft | 365 kts | 262° |
| 2026-04-21 03:44 | -25.04952 | -55.85787 | 30038 ft | 363 kts | 262° |
| 2026-04-21 03:44 | -25.05286 | -55.88545 | 29689 ft | 362 kts | 262° |
| 2026-04-21 03:44 | -25.05621 | -55.91290 | 29338 ft | 360 kts | 262° |
| 2026-04-21 03:44 | -25.05845 | -55.93134 | 29108 ft | 360 kts | 262° |
| 2026-04-21 03:45 | -25.06285 | -55.96747 | 28752 ft | 358 kts | 262° |
| 2026-04-21 03:45 | -25.06615 | -55.99461 | 28495 ft | 357 kts | 262° |
| 2026-04-21 03:45 | -25.06838 | -56.01292 | 28316 ft | 356 kts | 262° |
| 2026-04-21 03:45 | -25.07167 | -56.03998 | 28038 ft | 356 kts | 262° |
| 2026-04-21 03:46 | -25.07499 | -56.06754 | 26827 ft | 372 kts | 263° |
| 2026-04-21 03:46 | -25.07848 | -56.09661 | 25433 ft | 393 kts | 263° |
| 2026-04-21 03:46 | -25.08207 | -56.12664 | 24778 ft | 393 kts | 263° |
| 2026-04-21 03:46 | -25.08562 | -56.15608 | 24550 ft | 380 kts | 263° |
| 2026-04-21 03:47 | -25.08906 | -56.18452 | 24324 ft | 368 kts | 263° |
| 2026-04-21 03:47 | -25.09241 | -56.21208 | 24094 ft | 357 kts | 263° |
| 2026-04-21 03:47 | -25.09566 | -56.23884 | 23892 ft | 347 kts | 263° |
| 2026-04-21 03:47 | -25.09882 | -56.26502 | 23667 ft | 342 kts | 263° |
| 2026-04-21 03:48 | -25.10191 | -56.29092 | 23434 ft | 340 kts | 263° |
| 2026-04-21 03:48 | -25.10497 | -56.31677 | 23170 ft | 338 kts | 263° |
| 2026-04-21 03:48 | -25.10801 | -56.34238 | 22910 ft | 335 kts | 263° |
| 2026-04-21 03:48 | -25.11099 | -56.36767 | 22529 ft | 331 kts | 263° |
| 2026-04-21 03:49 | -25.11395 | -56.39276 | 22077 ft | 329 kts | 263° |
| 2026-04-21 03:49 | -25.11689 | -56.41771 | 21616 ft | 327 kts | 263° |
| 2026-04-21 03:49 | -25.11983 | -56.44260 | 21171 ft | 326 kts | 263° |
| 2026-04-21 03:49 | -25.12277 | -56.46733 | 20728 ft | 325 kts | 263° |
| 2026-04-21 03:50 | -25.12571 | -56.49210 | 20270 ft | 328 kts | 263° |
| 2026-04-21 03:50 | -25.12867 | -56.51732 | 19619 ft | 334 kts | 263° |
| 2026-04-21 03:50 | -25.13168 | -56.54293 | 18971 ft | 340 kts | 263° |
| 2026-04-21 03:50 | -25.13473 | -56.56903 | 18342 ft | 345 kts | 263° |
| 2026-04-21 03:51 | -25.13784 | -56.59550 | 17625 ft | 350 kts | 263° |
| 2026-04-21 03:51 | -25.13871 | -56.62242 | 16927 ft | 353 kts | 274° |
| 2026-04-21 03:51 | -25.13689 | -56.64957 | 16233 ft | 357 kts | 275° |
| 2026-04-21 03:51 | -25.13498 | -56.67699 | 15556 ft | 360 kts | 275° |
| 2026-04-21 03:52 | -25.13302 | -56.70464 | 14887 ft | 363 kts | 276° |
| 2026-04-21 03:52 | -25.13103 | -56.73245 | 14233 ft | 364 kts | 276° |
| 2026-04-21 03:52 | -25.12905 | -56.76036 | 13582 ft | 366 kts | 276° |
| 2026-04-21 03:52 | -25.12708 | -56.78838 | 12866 ft | 366 kts | 276° |
| 2026-04-21 03:53 | -25.12513 | -56.81637 | 12172 ft | 366 kts | 276° |
| 2026-04-21 03:53 | -25.12320 | -56.84427 | 11494 ft | 365 kts | 276° |
| 2026-04-21 03:53 | -25.12127 | -56.87215 | 10823 ft | 363 kts | 277° |
| 2026-04-21 03:53 | -25.11935 | -56.89986 | 10169 ft | 361 kts | 277° |
| 2026-04-21 03:54 | -25.11746 | -56.92724 | 9809 ft | 350 kts | 277° |
| 2026-04-21 03:54 | -25.11567 | -56.95331 | 9681 ft | 333 kts | 277° |
| 2026-04-21 03:54 | -25.11394 | -56.97816 | 9552 ft | 317 kts | 278° |
| 2026-04-21 03:54 | -25.11225 | -57.00187 | 9424 ft | 304 kts | 278° |
| 2026-04-21 03:55 | -25.11061 | -57.02466 | 9301 ft | 291 kts | 278° |
| 2026-04-21 03:55 | -25.10902 | -57.04645 | 9174 ft | 279 kts | 278° |
| 2026-04-21 03:55 | -25.10752 | -57.06735 | 9048 ft | 268 kts | 278° |
| 2026-04-21 03:55 | -25.10611 | -57.08748 | 8924 ft | 257 kts | 278° |
| 2026-04-21 03:56 | -25.10473 | -57.10677 | 8800 ft | 247 kts | 279° |
| 2026-04-21 03:56 | -25.10341 | -57.12533 | 8680 ft | 237 kts | 278° |
| 2026-04-21 03:56 | -25.10215 | -57.14302 | 8539 ft | 228 kts | 279° |
| 2026-04-21 03:56 | -25.10084 | -57.16067 | 8104 ft | 234 kts | 279° |
| 2026-04-21 03:57 | -25.09953 | -57.17845 | 7666 ft | 231 kts | 279° |
| 2026-04-21 03:57 | -25.09824 | -57.19607 | 7237 ft | 229 kts | 279° |
| 2026-04-21 03:57 | -25.09702 | -57.21314 | 7045 ft | 216 kts | 279° |
| 2026-04-21 03:57 | -25.09592 | -57.22911 | 6924 ft | 202 kts | 279° |
| 2026-04-21 03:58 | -25.09485 | -57.24432 | 6771 ft | 198 kts | 280° |
| 2026-04-21 03:58 | -25.09375 | -57.25943 | 6516 ft | 196 kts | 280° |
| 2026-04-21 03:58 | -25.09260 | -57.27450 | 6226 ft | 199 kts | 280° |
| 2026-04-21 03:58 | -25.09143 | -57.28981 | 5891 ft | 199 kts | 281° |
| 2026-04-21 03:59 | -25.09032 | -57.30491 | 5608 ft | 195 kts | 281° |
| 2026-04-21 03:59 | -25.08929 | -57.31954 | 5310 ft | 187 kts | 281° |
| 2026-04-21 03:59 | -25.08827 | -57.33366 | 5012 ft | 183 kts | 282° |
| 2026-04-21 04:00 | -25.08487 | -57.36108 | 4411 ft | 178 kts | 290° |
| 2026-04-21 04:00 | -25.08215 | -57.37448 | 4107 ft | 180 kts | 289° |
| 2026-04-21 04:00 | -25.07944 | -57.38794 | 3807 ft | 180 kts | 289° |
| 2026-04-21 04:00 | -25.07673 | -57.40145 | 3489 ft | 181 kts | 289° |
| 2026-04-21 04:01 | -25.07400 | -57.41498 | 3177 ft | 181 kts | 289° |
| 2026-04-21 04:01 | -25.07127 | -57.42854 | 2854 ft | 180 kts | 289° |
| 2026-04-21 04:01 | -25.06867 | -57.44194 | 2579 ft | 180 kts | 285° |
| 2026-04-21 04:01 | -25.06916 | -57.45594 | 2270 ft | 187 kts | 264° |
| 2026-04-21 04:02 | -25.07450 | -57.46918 | 1953 ft | 193 kts | 239° |
| 2026-04-21 04:02 | -25.08403 | -57.47896 | 1895 ft | 182 kts | 214° |
| 2026-04-21 04:02 | -25.09547 | -57.48409 | 1897 ft | 176 kts | 192° |
| 2026-04-21 04:02 | -25.10860 | -57.48727 | 1909 ft | 208 kts | 193° |
| 2026-04-21 04:03 | -25.12313 | -57.49079 | 1912 ft | 208 kts | 193° |
| 2026-04-21 04:03 | -25.13643 | -57.49401 | 1913 ft | 184 kts | 193° |
| 2026-04-21 04:03 | -25.14835 | -57.49690 | 1739 ft | 172 kts | 191° |
| 2026-04-21 04:03 | -25.15986 | -57.49970 | 1539 ft | 164 kts | 191° |
| 2026-04-21 04:04 | -25.17086 | -57.50237 | 1336 ft | 159 kts | 192° |
| 2026-04-21 04:04 | -25.18142 | -57.50493 | 1141 ft | 153 kts | 191° |
| 2026-04-21 04:04 | -25.19175 | -57.50744 | 951 ft | 146 kts | 193° |
| 2026-04-21 04:04 | -25.20151 | -57.50994 | 750 ft | 141 kts | 193° |
| 2026-04-21 04:05 | -25.21101 | -57.51238 | 581 ft | 140 kts | 189° |
| 2026-04-21 04:05 | -25.22024 | -57.51424 | 393 ft | 132 kts | 193° |
| 2026-04-21 04:05 | -25.22908 | -57.51659 | 273 ft | 126 kts | 187° |
| 2026-04-21 04:05 | -25.23649 | -57.51827 | 275 ft | 93 kts | 193° |
| 2026-04-21 04:06 | -25.24103 | -57.51940 | 283 ft | 40 kts | 192° |
| 2026-04-21 04:06 | -25.24347 | -57.51999 | 293 ft | 34 kts | 192° |
| 2026-04-21 04:06 | -25.24570 | -57.52053 | 294 ft | 32 kts | 192° |
| 2026-04-21 04:06 | -25.24793 | -57.52106 | 290 ft | 33 kts | 192° |
| 2026-04-21 04:07 | -25.25016 | -57.52158 | 295 ft | 33 kts | 192° |
| 2026-04-21 04:07 | -25.25236 | -57.52212 | 296 ft | 32 kts | 194° |
| 2026-04-21 04:07 | -25.25405 | -57.52248 | 298 ft | 19 kts | 178° |
| 2026-04-21 04:07 | -25.25473 | -57.52156 | 300 ft | 18 kts | 102° |
| 2026-04-21 04:08 | -25.25480 | -57.52124 | 299 ft | 0 kts | 104° |
| 2026-04-21 04:08 | -25.25481 | -57.52122 | 299 ft | 2 kts | 104° |
| 2026-04-21 04:09 | -25.25472 | -57.52068 | 299 ft | 13 kts | 53° |
| 2026-04-21 04:09 | -25.25370 | -57.52033 | 300 ft | 17 kts | 11° |
| 2026-04-21 04:09 | -25.25241 | -57.52005 | 296 ft | 21 kts | 11° |
| 2026-04-21 04:09 | -25.25085 | -57.51965 | 295 ft | 25 kts | 13° |
| 2026-04-21 04:10 | -25.24907 | -57.51917 | 294 ft | 28 kts | 13° |
| 2026-04-21 04:10 | -25.24704 | -57.51864 | 289 ft | 31 kts | 13° |
| 2026-04-21 04:10 | -25.24486 | -57.51809 | 286 ft | 33 kts | 13° |
| 2026-04-21 04:10 | -25.24383 | -57.51752 | 287 ft | 16 kts | 51° |
| 2026-04-21 04:11 | -25.24335 | -57.51657 | 286 ft | 8 kts | 55° |
| 2026-04-21 04:11 | -25.24305 | -57.51610 | 283 ft | 8 kts | 55° |
| 2026-04-21 04:11 | -25.24276 | -57.51564 | 285 ft | 6 kts | 55° |
| 2026-04-21 04:11 | -25.24269 | -57.51552 | 285 ft | 0 kts | 57° |
| 2026-04-21 04:12 | -25.24295 | -57.51525 | 283 ft | 10 kts | 155° |
| 2026-04-21 04:12 | -25.24340 | -57.51480 | 286 ft | 8 kts | 103° |
| 2026-04-21 04:12 | -25.24310 | -57.51450 | 283 ft | 6 kts | 36° |
| 2026-04-21 04:12 | -25.24286 | -57.51431 | 283 ft | 0 kts | 33° |
| 2026-04-21 04:13 | -25.24285 | -57.51431 | 283 ft | 0 kts | 37° |